Terminal Aerodrome Forecast
Issued by NWS

Home | Current Version | Previous Version | Text Only | Print | Product List | Glossary On
Versions: 1 2 3 4 5 6 7 8 9 10 11 12 13 14 15 16 17 18
000
FTUS46 KEKA 011757 CCA
TAFCEC
TAF COR
KCEC 011757Z 0118/0218 07004KT P6SM SKC
     FM011900 32008KT P6SM FEW250
     FM020300 36003KT 6SM BR SCT010
     FM020900 03003KT 5SM BR FEW005 SCT100 BKN250=

USA.gov is the U.S. government's official web portal to all federal, state and local government web resources and services.